sensor_id;sensor_type;location;lat;lon;timestamp;P1;durP1;ratioP1;P2;durP2;ratioP2
34204;SDS011;20471;49.680;20.074;2023-07-29T07:04:33;4.50;;;4.10;;
34204;SDS011;20471;49.680;20.074;2023-07-29T07:07:00;5.00;;;4.20;;
34204;SDS011;20471;49.680;20.074;2023-07-29T07:09:26;5.70;;;4.40;;
34204;SDS011;20471;49.680;20.074;2023-07-29T07:11:53;4.90;;;4.20;;
34204;SDS011;20471;49.680;20.074;2023-07-29T07:14:19;4.60;;;4.10;;
34204;SDS011;20471;49.680;20.074;2023-07-29T07:16:45;4.60;;;4.00;;
34204;SDS011;20471;49.680;20.074;2023-07-29T07:19:11;4.50;;;3.80;;
34204;SDS011;20471;49.680;20.074;2023-07-29T07:21:38;4.20;;;3.70;;
34204;SDS011;20471;49.680;20.074;2023-07-29T07:24:04;4.00;;;3.60;;
34204;SDS011;20471;49.680;20.074;2023-07-29T07:26:30;5.90;;;3.60;;
34204;SDS011;20471;49.680;20.074;2023-07-29T07:28:56;4.10;;;3.60;;
34204;SDS011;20471;49.680;20.074;2023-07-29T07:31:23;4.60;;;3.70;;
34204;SDS011;20471;49.680;20.074;2023-07-29T07:33:49;3.60;;;3.30;;
34204;SDS011;20471;49.680;20.074;2023-07-29T07:36:15;5.60;;;3.20;;
34204;SDS011;20471;49.680;20.074;2023-07-29T07:38:42;3.60;;;3.10;;
34204;SDS011;20471;49.680;20.074;2023-07-29T07:41:08;5.10;;;3.30;;
34204;SDS011;20471;49.680;20.074;2023-07-29T07:43:34;3.50;;;2.90;;
34204;SDS011;20471;49.680;20.074;2023-07-29T07:46:01;4.70;;;3.00;;
34204;SDS011;20471;49.680;20.074;2023-07-29T07:48:27;4.20;;;3.00;;
34204;SDS011;20471;49.680;20.074;2023-07-29T07:50:54;4.70;;;3.00;;
34204;SDS011;20471;49.680;20.074;2023-07-29T07:53:20;3.20;;;2.90;;
34204;SDS011;20471;49.680;20.074;2023-07-29T07:55:46;3.80;;;2.80;;
34204;SDS011;20471;49.680;20.074;2023-07-29T07:58:13;6.00;;;2.50;;
34204;SDS011;20471;49.680;20.074;2023-07-29T08:00:39;3.90;;;2.50;;
34204;SDS011;20471;49.680;20.074;2023-07-29T08:03:05;4.40;;;2.60;;
34204;SDS011;20471;49.680;20.074;2023-07-29T08:05:32;4.30;;;3.00;;
34204;SDS011;20471;49.680;20.074;2023-07-29T08:07:58;3.20;;;2.80;;
34204;SDS011;20471;49.680;20.074;2023-07-29T08:10:25;3.20;;;2.90;;
34204;SDS011;20471;49.680;20.074;2023-07-29T08:12:51;3.30;;;3.00;;
34204;SDS011;20471;49.680;20.074;2023-07-29T08:15:17;4.60;;;2.90;;
34204;SDS011;20471;49.680;20.074;2023-07-29T08:17:45;4.80;;;3.30;;
34204;SDS011;20471;49.680;20.074;2023-07-29T08:20:12;5.00;;;3.60;;
34204;SDS011;20471;49.680;20.074;2023-07-29T08:22:38;5.00;;;4.40;;
34204;SDS011;20471;49.680;20.074;2023-07-29T08:25:05;4.70;;;3.90;;
34204;SDS011;20471;49.680;20.074;2023-07-29T08:27:33;3.50;;;3.20;;
34204;SDS011;20471;49.680;20.074;2023-07-29T08:29:59;5.60;;;3.30;;
34204;SDS011;20471;49.680;20.074;2023-07-29T08:32:26;3.80;;;3.30;;
34204;SDS011;20471;49.680;20.074;2023-07-29T08:34:52;3.60;;;3.30;;
34204;SDS011;20471;49.680;20.074;2023-07-29T08:37:18;3.10;;;2.40;;
34204;SDS011;20471;49.680;20.074;2023-07-29T08:39:45;3.30;;;3.00;;
34204;SDS011;20471;49.680;20.074;2023-07-29T08:42:11;3.70;;;2.60;;
34204;SDS011;20471;49.680;20.074;2023-07-29T08:44:41;8.00;;;5.40;;
34204;SDS011;20471;49.680;20.074;2023-07-29T08:47:09;14.40;;;6.20;;
34204;SDS011;20471;49.680;20.074;2023-07-29T08:49:36;8.70;;;6.60;;
34204;SDS011;20471;49.680;20.074;2023-07-29T15:22:06;6.10;;;3.40;;
34204;SDS011;20471;49.680;20.074;2023-07-29T15:24:33;3.50;;;3.20;;
34204;SDS011;20471;49.680;20.074;2023-07-29T15:26:59;5.10;;;3.80;;
34204;SDS011;20471;49.680;20.074;2023-07-29T15:29:26;4.20;;;3.40;;
34204;SDS011;20471;49.680;20.074;2023-07-29T15:31:52;5.00;;;3.40;;
34204;SDS011;20471;49.680;20.074;2023-07-29T15:34:18;4.60;;;4.10;;
34204;SDS011;20471;49.680;20.074;2023-07-29T15:36:45;7.30;;;4.80;;
34204;SDS011;20471;49.680;20.074;2023-07-29T15:39:11;6.10;;;4.60;;
34204;SDS011;20471;49.680;20.074;2023-07-29T15:41:37;5.40;;;3.40;;
34204;SDS011;20471;49.680;20.074;2023-07-29T15:44:04;5.60;;;3.70;;
34204;SDS011;20471;49.680;20.074;2023-07-29T15:46:30;4.50;;;4.00;;
34204;SDS011;20471;49.680;20.074;2023-07-29T15:48:56;6.10;;;4.10;;
34204;SDS011;20471;49.680;20.074;2023-07-29T15:51:25;7.70;;;5.00;;
34204;SDS011;20471;49.680;20.074;2023-07-29T15:53:52;6.40;;;4.70;;
34204;SDS011;20471;49.680;20.074;2023-07-29T15:56:19;6.30;;;4.40;;
34204;SDS011;20471;49.680;20.074;2023-07-29T15:58:45;4.40;;;3.40;;
34204;SDS011;20471;49.680;20.074;2023-07-29T16:01:12;4.60;;;3.20;;
34204;SDS011;20471;49.680;20.074;2023-07-29T16:03:38;2.70;;;2.50;;
34204;SDS011;20471;49.680;20.074;2023-07-29T16:06:06;4.00;;;3.40;;
34204;SDS011;20471;49.680;20.074;2023-07-29T16:08:33;5.60;;;3.50;;
34204;SDS011;20471;49.680;20.074;2023-07-29T16:10:59;3.40;;;2.90;;
34204;SDS011;20471;49.680;20.074;2023-07-29T16:13:26;5.40;;;3.40;;
34204;SDS011;20471;49.680;20.074;2023-07-29T16:15:52;3.50;;;3.20;;
34204;SDS011;20471;49.680;20.074;2023-07-29T16:18:18;5.70;;;3.00;;
34204;SDS011;20471;49.680;20.074;2023-07-29T16:20:45;3.30;;;3.00;;
34204;SDS011;20471;49.680;20.074;2023-07-29T16:23:12;4.10;;;3.40;;
34204;SDS011;20471;49.680;20.074;2023-07-29T16:25:38;4.80;;;3.20;;
34204;SDS011;20471;49.680;20.074;2023-07-29T16:28:04;4.30;;;3.10;;
34204;SDS011;20471;49.680;20.074;2023-07-29T16:30:31;3.30;;;2.80;;
34204;SDS011;20471;49.680;20.074;2023-07-29T16:32:57;4.60;;;3.00;;
34204;SDS011;20471;49.680;20.074;2023-07-29T16:35:23;7.00;;;3.00;;
34204;SDS011;20471;49.680;20.074;2023-07-29T16:37:50;4.20;;;3.00;;
34204;SDS011;20471;49.680;20.074;2023-07-29T16:40:17;3.20;;;2.30;;
34204;SDS011;20471;49.680;20.074;2023-07-29T16:42:43;3.50;;;2.70;;
34204;SDS011;20471;49.680;20.074;2023-07-29T16:45:09;4.30;;;3.00;;
34204;SDS011;20471;49.680;20.074;2023-07-29T16:47:36;5.70;;;2.70;;
34204;SDS011;20471;49.680;20.074;2023-07-29T16:50:02;3.20;;;2.90;;
34204;SDS011;20471;49.680;20.074;2023-07-29T16:52:29;8.90;;;3.60;;
34204;SDS011;20471;49.680;20.074;2023-07-29T16:54:55;5.60;;;3.90;;
34204;SDS011;20471;49.680;20.074;2023-07-29T16:57:21;8.00;;;3.70;;
34204;SDS011;20471;49.680;20.074;2023-07-29T16:59:47;4.90;;;4.20;;
34204;SDS011;20471;49.680;20.074;2023-07-29T17:02:14;6.20;;;4.20;;
34204;SDS011;20471;49.680;20.074;2023-07-29T17:04:40;14.40;;;12.20;;
34204;SDS011;20471;49.680;20.074;2023-07-29T17:07:06;20.40;;;13.70;;
34204;SDS011;20471;49.680;20.074;2023-07-29T17:09:33;8.50;;;6.00;;
34204;SDS011;20471;49.680;20.074;2023-07-29T17:11:59;7.50;;;5.50;;
34204;SDS011;20471;49.680;20.074;2023-07-29T17:14:25;6.30;;;4.30;;
34204;SDS011;20471;49.680;20.074;2023-07-29T17:16:52;4.70;;;4.20;;
34204;SDS011;20471;49.680;20.074;2023-07-29T17:19:19;3.50;;;3.20;;
34204;SDS011;20471;49.680;20.074;2023-07-29T17:21:45;5.60;;;3.60;;
34204;SDS011;20471;49.680;20.074;2023-07-29T17:24:12;6.70;;;4.80;;
34204;SDS011;20471;49.680;20.074;2023-07-29T17:26:38;8.40;;;5.10;;
34204;SDS011;20471;49.680;20.074;2023-07-29T17:29:04;5.90;;;4.80;;
34204;SDS011;20471;49.680;20.074;2023-07-29T17:31:31;6.40;;;5.40;;
34204;SDS011;20471;49.680;20.074;2023-07-29T17:33:57;8.40;;;5.00;;
34204;SDS011;20471;49.680;20.074;2023-07-29T17:36:25;8.30;;;5.40;;
34204;SDS011;20471;49.680;20.074;2023-07-29T17:38:52;10.10;;;6.10;;
34204;SDS011;20471;49.680;20.074;2023-07-29T17:41:18;7.60;;;6.30;;
34204;SDS011;20471;49.680;20.074;2023-07-29T17:43:44;9.10;;;6.40;;
34204;SDS011;20471;49.680;20.074;2023-07-29T17:46:13;9.80;;;6.40;;
34204;SDS011;20471;49.680;20.074;2023-07-29T17:48:42;6.70;;;5.20;;
34204;SDS011;20471;49.680;20.074;2023-07-29T17:51:09;7.60;;;5.70;;
34204;SDS011;20471;49.680;20.074;2023-07-29T17:53:36;10.10;;;7.10;;
34204;SDS011;20471;49.680;20.074;2023-07-29T17:56:02;13.80;;;8.90;;
34204;SDS011;20471;49.680;20.074;2023-07-29T17:58:29;14.00;;;9.80;;
34204;SDS011;20471;49.680;20.074;2023-07-29T18:00:58;12.70;;;9.80;;
34204;SDS011;20471;49.680;20.074;2023-07-29T18:03:24;12.50;;;8.80;;
34204;SDS011;20471;49.680;20.074;2023-07-29T18:05:51;10.70;;;8.10;;
34204;SDS011;20471;49.680;20.074;2023-07-29T18:08:17;12.60;;;8.10;;
34204;SDS011;20471;49.680;20.074;2023-07-29T18:10:44;11.00;;;8.20;;
34204;SDS011;20471;49.680;20.074;2023-07-29T18:13:10;11.40;;;8.00;;
34204;SDS011;20471;49.680;20.074;2023-07-29T19:50:06;13.50;;;9.20;;
34204;SDS011;20471;49.680;20.074;2023-07-29T19:52:35;10.60;;;8.80;;
34204;SDS011;20471;49.680;20.074;2023-07-29T19:55:03;12.40;;;9.70;;
34204;SDS011;20471;49.680;20.074;2023-07-29T19:57:32;16.20;;;8.10;;
34204;SDS011;20471;49.680;20.074;2023-07-29T19:59:59;14.80;;;8.70;;
34204;SDS011;20471;49.680;20.074;2023-07-29T20:02:27;16.90;;;9.60;;
34204;SDS011;20471;49.680;20.074;2023-07-29T20:04:57;12.90;;;9.40;;
34204;SDS011;20471;49.680;20.074;2023-07-29T20:07:25;12.90;;;8.90;;
34204;SDS011;20471;49.680;20.074;2023-07-29T20:09:53;11.00;;;8.30;;
34204;SDS011;20471;49.680;20.074;2023-07-29T20:12:20;11.70;;;8.30;;
34204;SDS011;20471;49.680;20.074;2023-07-29T20:14:48;15.40;;;8.80;;
34204;SDS011;20471;49.680;20.074;2023-07-29T20:17:16;13.10;;;8.90;;
34204;SDS011;20471;49.680;20.074;2023-07-29T20:19:43;10.20;;;7.00;;
34204;SDS011;20471;49.680;20.074;2023-07-29T20:22:11;8.00;;;6.50;;
34204;SDS011;20471;49.680;20.074;2023-07-29T20:24:39;17.40;;;9.90;;
34204;SDS011;20471;49.680;20.074;2023-07-29T20:27:07;14.60;;;9.20;;
34204;SDS011;20471;49.680;20.074;2023-07-29T20:29:34;22.30;;;12.30;;
34204;SDS011;20471;49.680;20.074;2023-07-29T20:32:02;18.20;;;10.30;;
34204;SDS011;20471;49.680;20.074;2023-07-29T20:34:30;16.30;;;10.10;;
34204;SDS011;20471;49.680;20.074;2023-07-29T20:36:57;18.30;;;11.10;;
34204;SDS011;20471;49.680;20.074;2023-07-29T20:39:25;18.20;;;12.00;;
34204;SDS011;20471;49.680;20.074;2023-07-29T20:41:55;17.30;;;12.40;;
34204;SDS011;20471;49.680;20.074;2023-07-29T20:44:25;15.80;;;11.70;;
34204;SDS011;20471;49.680;20.074;2023-07-29T20:46:54;16.20;;;10.80;;
34204;SDS011;20471;49.680;20.074;2023-07-29T20:49:22;13.60;;;10.40;;
34204;SDS011;20471;49.680;20.074;2023-07-29T20:51:50;16.70;;;9.90;;
34204;SDS011;20471;49.680;20.074;2023-07-29T20:54:17;18.10;;;10.10;;
34204;SDS011;20471;49.680;20.074;2023-07-29T20:56:46;13.90;;;10.20;;
34204;SDS011;20471;49.680;20.074;2023-07-29T20:59:13;13.60;;;10.10;;
34204;SDS011;20471;49.680;20.074;2023-07-29T21:01:41;17.20;;;9.40;;
34204;SDS011;20471;49.680;20.074;2023-07-29T21:04:09;17.20;;;9.70;;
34204;SDS011;20471;49.680;20.074;2023-07-29T21:06:37;12.90;;;8.80;;
34204;SDS011;20471;49.680;20.074;2023-07-29T21:09:04;13.10;;;9.40;;
34204;SDS011;20471;49.680;20.074;2023-07-29T21:11:32;14.30;;;9.00;;
34204;SDS011;20471;49.680;20.074;2023-07-29T21:14:00;12.50;;;8.50;;
34204;SDS011;20471;49.680;20.074;2023-07-29T21:16:28;10.70;;;7.90;;
34204;SDS011;20471;49.680;20.074;2023-07-29T21:18:56;10.70;;;7.90;;
34204;SDS011;20471;49.680;20.074;2023-07-29T21:21:24;13.70;;;8.30;;
34204;SDS011;20471;49.680;20.074;2023-07-29T21:23:51;14.60;;;7.90;;
34204;SDS011;20471;49.680;20.074;2023-07-29T21:26:19;13.90;;;6.70;;
34204;SDS011;20471;49.680;20.074;2023-07-29T21:28:47;8.80;;;5.80;;
34204;SDS011;20471;49.680;20.074;2023-07-29T21:31:14;12.60;;;6.00;;
34204;SDS011;20471;49.680;20.074;2023-07-29T21:33:42;9.80;;;5.30;;
34204;SDS011;20471;49.680;20.074;2023-07-29T21:36:10;10.20;;;5.00;;
34204;SDS011;20471;49.680;20.074;2023-07-29T21:38:37;7.30;;;4.70;;
34204;SDS011;20471;49.680;20.074;2023-07-29T21:41:07;12.80;;;5.60;;
34204;SDS011;20471;49.680;20.074;2023-07-29T21:43:35;9.30;;;5.90;;
34204;SDS011;20471;49.680;20.074;2023-07-29T21:46:03;10.00;;;5.90;;
34204;SDS011;20471;49.680;20.074;2023-07-29T21:48:32;13.40;;;6.10;;
34204;SDS011;20471;49.680;20.074;2023-07-29T21:51:00;15.10;;;7.90;;
34204;SDS011;20471;49.680;20.074;2023-07-29T21:53:27;12.20;;;7.40;;
34204;SDS011;20471;49.680;20.074;2023-07-29T21:55:55;9.90;;;6.80;;
34204;SDS011;20471;49.680;20.074;2023-07-29T21:58:34;6.50;;;4.90;;
34204;SDS011;20471;49.680;20.074;2023-07-29T22:01:15;12.10;;;4.70;;
34204;SDS011;20471;49.680;20.074;2023-07-29T22:03:43;5.80;;;4.30;;
34204;SDS011;20471;49.680;20.074;2023-07-29T22:06:10;6.50;;;4.70;;
34204;SDS011;20471;49.680;20.074;2023-07-29T22:08:38;8.50;;;4.90;;
34204;SDS011;20471;49.680;20.074;2023-07-29T22:11:07;8.80;;;5.10;;
34204;SDS011;20471;49.680;20.074;2023-07-29T22:13:37;6.70;;;4.40;;
34204;SDS011;20471;49.680;20.074;2023-07-29T22:16:05;10.10;;;4.60;;
34204;SDS011;20471;49.680;20.074;2023-07-29T22:18:33;10.00;;;4.90;;
34204;SDS011;20471;49.680;20.074;2023-07-29T22:21:01;8.60;;;4.70;;
34204;SDS011;20471;49.680;20.074;2023-07-29T22:23:28;7.50;;;4.80;;
34204;SDS011;20471;49.680;20.074;2023-07-29T22:28:30;7.60;;;4.20;;
34204;SDS011;20471;49.680;20.074;2023-07-29T22:31:00;7.50;;;4.20;;
34204;SDS011;20471;49.680;20.074;2023-07-29T22:33:32;6.80;;;3.70;;
34204;SDS011;20471;49.680;20.074;2023-07-29T22:36:03;9.10;;;4.00;;
34204;SDS011;20471;49.680;20.074;2023-07-29T22:38:31;9.40;;;4.10;;
34204;SDS011;20471;49.680;20.074;2023-07-29T22:41:00;9.00;;;4.10;;
34204;SDS011;20471;49.680;20.074;2023-07-29T22:43:27;5.70;;;4.40;;
34204;SDS011;20471;49.680;20.074;2023-07-29T22:45:57;7.60;;;4.50;;
34204;SDS011;20471;49.680;20.074;2023-07-29T22:48:26;6.00;;;4.70;;
34204;SDS011;20471;49.680;20.074;2023-07-29T22:50:54;6.90;;;4.30;;
34204;SDS011;20471;49.680;20.074;2023-07-29T22:53:23;7.00;;;4.30;;
34204;SDS011;20471;49.680;20.074;2023-07-29T22:55:52;5.50;;;4.30;;
34204;SDS011;20471;49.680;20.074;2023-07-29T22:58:20;6.80;;;4.10;;
34204;SDS011;20471;49.680;20.074;2023-07-29T23:00:48;9.10;;;3.70;;
34204;SDS011;20471;49.680;20.074;2023-07-29T23:03:17;6.20;;;3.70;;
34204;SDS011;20471;49.680;20.074;2023-07-29T23:05:45;4.40;;;3.70;;
34204;SDS011;20471;49.680;20.074;2023-07-29T23:08:13;10.30;;;4.30;;
34204;SDS011;20471;49.680;20.074;2023-07-29T23:10:41;6.70;;;4.00;;
34204;SDS011;20471;49.680;20.074;2023-07-29T23:13:09;8.00;;;4.10;;
34204;SDS011;20471;49.680;20.074;2023-07-29T23:15:37;4.20;;;3.60;;
34204;SDS011;20471;49.680;20.074;2023-07-29T23:18:06;7.00;;;4.10;;
34204;SDS011;20471;49.680;20.074;2023-07-29T23:20:34;6.00;;;4.50;;
34204;SDS011;20471;49.680;20.074;2023-07-29T23:23:02;7.70;;;4.00;;
34204;SDS011;20471;49.680;20.074;2023-07-29T23:25:31;9.70;;;4.70;;
34204;SDS011;20471;49.680;20.074;2023-07-29T23:27:59;5.30;;;4.10;;
34204;SDS011;20471;49.680;20.074;2023-07-29T23:30:26;8.00;;;3.30;;
34204;SDS011;20471;49.680;20.074;2023-07-29T23:32:54;4.70;;;3.80;;
34204;SDS011;20471;49.680;20.074;2023-07-29T23:35:22;7.60;;;4.10;;
34204;SDS011;20471;49.680;20.074;2023-07-29T23:37:49;10.70;;;4.30;;
34204;SDS011;20471;49.680;20.074;2023-07-29T23:40:17;9.00;;;3.90;;
34204;SDS011;20471;49.680;20.074;2023-07-29T23:42:45;6.80;;;3.80;;
34204;SDS011;20471;49.680;20.074;2023-07-29T23:45:12;6.10;;;3.90;;
34204;SDS011;20471;49.680;20.074;2023-07-29T23:47:40;6.70;;;4.00;;
34204;SDS011;20471;49.680;20.074;2023-07-29T23:50:08;5.00;;;4.00;;
34204;SDS011;20471;49.680;20.074;2023-07-29T23:52:36;7.40;;;4.10;;
34204;SDS011;20471;49.680;20.074;2023-07-29T23:55:04;6.00;;;4.10;;
34204;SDS011;20471;49.680;20.074;2023-07-29T23:57:32;8.60;;;4.20;;
